sensor_id;sensor_type;location;lat;lon;timestamp;pressure;altitude;pressure_sealevel;temperature;humidity
25638;BME280;13496;51.040;13.680;2023-03-01T00:04:44;101142.75;;;15.37;54.72
25638;BME280;13496;51.040;13.680;2023-03-01T00:09:45;101152.25;;;15.38;54.55
25638;BME280;13496;51.040;13.680;2023-03-01T00:14:47;101147.75;;;15.40;54.65
25638;BME280;13496;51.040;13.680;2023-03-01T00:19:49;101148.00;;;15.37;54.84
25638;BME280;13496;51.040;13.680;2023-03-01T00:24:50;101134.91;;;15.37;54.51
25638;BME280;13496;51.040;13.680;2023-03-01T00:29:52;101143.03;;;15.34;54.58
25638;BME280;13496;51.040;13.680;2023-03-01T00:34:54;101134.25;;;15.35;54.56
25638;BME280;13496;51.040;13.680;2023-03-01T00:39:56;101129.38;;;15.31;54.61
25638;BME280;13496;51.040;13.680;2023-03-01T00:44:58;101125.94;;;15.30;54.67
25638;BME280;13496;51.040;13.680;2023-03-01T00:50:00;101117.13;;;15.31;54.59
25638;BME280;13496;51.040;13.680;2023-03-01T00:55:02;101109.84;;;15.25;54.93
25638;BME280;13496;51.040;13.680;2023-03-01T01:00:05;101108.06;;;15.25;54.60
25638;BME280;13496;51.040;13.680;2023-03-01T01:05:07;101111.34;;;15.28;54.76
25638;BME280;13496;51.040;13.680;2023-03-01T01:10:10;101108.06;;;15.25;54.54
25638;BME280;13496;51.040;13.680;2023-03-01T01:15:18;101108.06;;;15.25;54.74
25638;BME280;13496;51.040;13.680;2023-03-01T01:20:20;101115.06;;;15.25;54.54
25638;BME280;13496;51.040;13.680;2023-03-01T01:25:22;101103.91;;;15.23;54.61
25638;BME280;13496;51.040;13.680;2023-03-01T01:30:26;101100.63;;;15.21;54.69
25638;BME280;13496;51.040;13.680;2023-03-01T01:35:28;101093.84;;;15.18;54.64
25638;BME280;13496;51.040;13.680;2023-03-01T01:40:29;101086.84;;;15.19;54.45
25638;BME280;13496;51.040;13.680;2023-03-01T01:45:34;101092.88;;;15.19;54.63
25638;BME280;13496;51.040;13.680;2023-03-01T01:50:39;101092.22;;;15.17;54.58
25638;BME280;13496;51.040;13.680;2023-03-01T01:55:45;101092.31;;;15.16;54.68
25638;BME280;13496;51.040;13.680;2023-03-01T02:00:49;101091.50;;;15.15;54.60
25638;BME280;13496;51.040;13.680;2023-03-01T02:11:03;101080.47;;;15.12;54.70
25638;BME280;13496;51.040;13.680;2023-03-01T02:16:13;101087.34;;;15.13;54.58
25638;BME280;13496;51.040;13.680;2023-03-01T02:21:25;101078.84;;;15.11;54.52
25638;BME280;13496;51.040;13.680;2023-03-01T02:26:40;101066.59;;;15.11;54.69
25638;BME280;13496;51.040;13.680;2023-03-01T02:31:43;101053.78;;;15.08;54.55
25638;BME280;13496;51.040;13.680;2023-03-01T02:36:51;101046.91;;;15.07;54.62
25638;BME280;13496;51.040;13.680;2023-03-01T02:41:56;101054.88;;;15.06;54.66
25638;BME280;13496;51.040;13.680;2023-03-01T02:47:02;101049.38;;;15.09;54.42
25638;BME280;13496;51.040;13.680;2023-03-01T02:57:40;101049.66;;;15.06;54.45
25638;BME280;13496;51.040;13.680;2023-03-01T03:02:43;101039.59;;;15.01;54.55
25638;BME280;13496;51.040;13.680;2023-03-01T03:07:54;101032.56;;;15.01;54.52
25638;BME280;13496;51.040;13.680;2023-03-01T03:13:05;101039.47;;;15.03;54.43
25638;BME280;13496;51.040;13.680;2023-03-01T03:18:11;101038.09;;;14.98;54.60
25638;BME280;13496;51.040;13.680;2023-03-01T03:23:13;101042.47;;;14.98;54.60
25638;BME280;13496;51.040;13.680;2023-03-01T03:28:15;101025.94;;;14.97;54.54
25638;BME280;13496;51.040;13.680;2023-03-01T03:33:17;101022.66;;;14.95;54.66
25638;BME280;13496;51.040;13.680;2023-03-01T03:38:19;101038.34;;;14.95;54.65
25638;BME280;13496;51.040;13.680;2023-03-01T03:43:23;101022.66;;;14.95;54.61
25638;BME280;13496;51.040;13.680;2023-03-01T03:48:25;101020.06;;;14.95;54.50
25638;BME280;13496;51.040;13.680;2023-03-01T03:53:28;101015.22;;;14.91;54.45
25638;BME280;13496;51.040;13.680;2023-03-01T03:58:30;101019.09;;;14.96;54.45
25638;BME280;13496;51.040;13.680;2023-03-01T04:03:32;101016.06;;;14.91;54.50
25638;BME280;13496;51.040;13.680;2023-03-01T04:08:34;101033.13;;;14.95;54.37
25638;BME280;13496;51.040;13.680;2023-03-01T04:13:36;101048.91;;;14.94;54.41
25638;BME280;13496;51.040;13.680;2023-03-01T04:18:37;101031.84;;;14.90;54.48
25638;BME280;13496;51.040;13.680;2023-03-01T04:23:39;101036.97;;;14.91;54.46
25638;BME280;13496;51.040;13.680;2023-03-01T04:28:43;101019.59;;;14.90;54.33
25638;BME280;13496;51.040;13.680;2023-03-01T04:33:52;101019.59;;;14.90;54.34
25638;BME280;13496;51.040;13.680;2023-03-01T04:38:55;101030.34;;;14.87;54.51
25638;BME280;13496;51.040;13.680;2023-03-01T04:43:56;101025.13;;;14.87;54.39
25638;BME280;13496;51.040;13.680;2023-03-01T04:48:58;101024.41;;;14.85;54.52
25638;BME280;13496;51.040;13.680;2023-03-01T04:54:00;101025.22;;;14.86;54.44
25638;BME280;13496;51.040;13.680;2023-03-01T04:59:01;101024.41;;;14.85;54.50
25638;BME280;13496;51.040;13.680;2023-03-01T05:04:07;101022.88;;;14.83;54.32
25638;BME280;13496;51.040;13.680;2023-03-01T05:09:08;101021.78;;;14.85;54.36
25638;BME280;13496;51.040;13.680;2023-03-01T05:14:10;101023.44;;;14.86;54.25
25638;BME280;13496;51.040;13.680;2023-03-01T05:19:12;101016.56;;;14.85;54.33
25638;BME280;13496;51.040;13.680;2023-03-01T05:24:16;101014.94;;;14.84;54.39
25638;BME280;13496;51.040;13.680;2023-03-01T05:29:22;101014.94;;;14.84;54.70
25638;BME280;13496;51.040;13.680;2023-03-01T05:34:35;101015.03;;;14.83;54.86
25638;BME280;13496;51.040;13.680;2023-03-01T05:39:37;101005.44;;;14.83;54.93
25638;BME280;13496;51.040;13.680;2023-03-01T05:44:39;101005.44;;;14.83;55.07
25638;BME280;13496;51.040;13.680;2023-03-01T05:49:41;101008.06;;;14.83;55.08
25638;BME280;13496;51.040;13.680;2023-03-01T05:54:42;101005.81;;;14.79;55.09
25638;BME280;13496;51.040;13.680;2023-03-01T05:59:45;101013.28;;;14.83;54.97
25638;BME280;13496;51.040;13.680;2023-03-01T06:04:50;101015.19;;;14.81;54.98
25638;BME280;13496;51.040;13.680;2023-03-01T06:09:52;101017.09;;;14.79;55.00
25638;BME280;13496;51.040;13.680;2023-03-01T06:14:53;101021.38;;;14.80;54.84
25638;BME280;13496;51.040;13.680;2023-03-01T06:19:55;101018.06;;;14.78;54.86
25638;BME280;13496;51.040;13.680;2023-03-01T06:24:56;101023.03;;;14.81;54.79
25638;BME280;13496;51.040;13.680;2023-03-01T06:29:58;101029.22;;;14.80;54.84
25638;BME280;13496;51.040;13.680;2023-03-01T06:35:00;101031.84;;;14.80;54.99
25638;BME280;13496;51.040;13.680;2023-03-01T06:40:05;101035.00;;;14.84;54.75
25638;BME280;13496;51.040;13.680;2023-03-01T06:45:12;101035.94;;;14.83;54.70
25638;BME280;13496;51.040;13.680;2023-03-01T06:50:15;101037.72;;;14.82;54.75
25638;BME280;13496;51.040;13.680;2023-03-01T06:55:17;101040.34;;;14.82;54.77
25638;BME280;13496;51.040;13.680;2023-03-01T07:00:18;101042.97;;;14.82;54.77
25638;BME280;13496;51.040;13.680;2023-03-01T07:05:20;101042.69;;;14.85;54.70
25638;BME280;13496;51.040;13.680;2023-03-01T07:10:22;101028.97;;;14.83;54.76
25638;BME280;13496;51.040;13.680;2023-03-01T07:15:25;101032.97;;;14.87;54.67
25638;BME280;13496;51.040;13.680;2023-03-01T07:20:27;101024.16;;;14.88;54.64
25638;BME280;13496;51.040;13.680;2023-03-01T07:25:29;101019.59;;;14.90;54.64
25638;BME280;13496;51.040;13.680;2023-03-01T07:30:31;101017.44;;;14.95;54.49
25638;BME280;13496;51.040;13.680;2023-03-01T07:35:33;101014.56;;;14.98;54.52
25638;BME280;13496;51.040;13.680;2023-03-01T07:40:35;101007.97;;;15.04;54.58
25638;BME280;13496;51.040;13.680;2023-03-01T07:45:36;101013.75;;;15.08;54.56
25638;BME280;13496;51.040;13.680;2023-03-01T07:50:38;101006.63;;;15.10;54.36
25638;BME280;13496;51.040;13.680;2023-03-01T07:55:40;101007.03;;;15.15;54.56
25638;BME280;13496;51.040;13.680;2023-03-01T08:00:41;101002.22;;;15.20;53.99
25638;BME280;13496;51.040;13.680;2023-03-01T08:05:43;100994.09;;;15.23;54.39
25638;BME280;13496;51.040;13.680;2023-03-01T08:10:45;100985.03;;;15.27;54.41
25638;BME280;13496;51.040;13.680;2023-03-01T08:15:46;100972.38;;;15.32;54.32
25638;BME280;13496;51.040;13.680;2023-03-01T08:20:48;100972.94;;;15.36;54.29
25638;BME280;13496;51.040;13.680;2023-03-01T08:25:49;100977.06;;;15.38;54.29
25638;BME280;13496;51.040;13.680;2023-03-01T08:30:51;100974.88;;;15.43;54.25
25638;BME280;13496;51.040;13.680;2023-03-01T08:36:02;100975.81;;;15.52;54.26
25638;BME280;13496;51.040;13.680;2023-03-01T08:41:04;100974.47;;;15.58;54.13
25638;BME280;13496;51.040;13.680;2023-03-01T08:46:05;100975.69;;;15.63;54.07
25638;BME280;13496;51.040;13.680;2023-03-01T08:51:13;100964.00;;;15.67;53.93
25638;BME280;13496;51.040;13.680;2023-03-01T08:56:15;100966.34;;;15.70;54.16
25638;BME280;13496;51.040;13.680;2023-03-01T09:01:18;100964.97;;;15.76;54.20
25638;BME280;13496;51.040;13.680;2023-03-01T09:06:20;100967.16;;;15.81;54.05
25638;BME280;13496;51.040;13.680;2023-03-01T09:11:22;100963.16;;;15.86;54.05
25638;BME280;13496;51.040;13.680;2023-03-01T09:16:23;100963.69;;;15.90;54.04
25638;BME280;13496;51.040;13.680;2023-03-01T09:21:25;100941.50;;;15.94;54.03
25638;BME280;13496;51.040;13.680;2023-03-01T09:26:27;100937.63;;;15.98;54.11
25638;BME280;13496;51.040;13.680;2023-03-01T09:31:28;100930.22;;;16.03;54.07
25638;BME280;13496;51.040;13.680;2023-03-01T09:36:30;100929.09;;;16.06;53.93
25638;BME280;13496;51.040;13.680;2023-03-01T09:41:46;100921.63;;;16.11;54.07
25638;BME280;13496;51.040;13.680;2023-03-01T09:46:48;100935.13;;;16.16;53.80
25638;BME280;13496;51.040;13.680;2023-03-01T09:51:57;100928.94;;;16.17;53.87
25638;BME280;13496;51.040;13.680;2023-03-01T09:57:06;100925.06;;;16.21;53.87
25638;BME280;13496;51.040;13.680;2023-03-01T10:02:57;100920.19;;;16.26;53.62
25638;BME280;13496;51.040;13.680;2023-03-01T10:08:13;100925.16;;;16.29;53.95
25638;BME280;13496;51.040;13.680;2023-03-01T10:13:49;100924.88;;;16.32;53.84
25638;BME280;13496;51.040;13.680;2023-03-01T10:19:00;100922.50;;;16.39;53.89
25638;BME280;13496;51.040;13.680;2023-03-01T10:24:15;100929.38;;;16.40;53.98
25638;BME280;13496;51.040;13.680;2023-03-01T10:29:23;100925.94;;;16.39;53.66
25638;BME280;13496;51.040;13.680;2023-03-01T10:34:29;100919.56;;;16.42;53.68
25638;BME280;13496;51.040;13.680;2023-03-01T10:39:31;100908.00;;;16.44;53.99
25638;BME280;13496;51.040;13.680;2023-03-01T10:49:54;100897.50;;;16.44;53.54
25638;BME280;13496;51.040;13.680;2023-03-01T10:55:03;100899.41;;;16.52;53.80
25638;BME280;13496;51.040;13.680;2023-03-01T11:00:24;100883.41;;;16.55;53.92
25638;BME280;13496;51.040;13.680;2023-03-01T11:05:26;100881.16;;;16.60;53.76
25638;BME280;13496;51.040;13.680;2023-03-01T11:10:33;100872.88;;;16.65;53.63
25638;BME280;13496;51.040;13.680;2023-03-01T11:15:35;100859.31;;;16.69;53.54
25638;BME280;13496;51.040;13.680;2023-03-01T11:20:37;100848.31;;;16.66;53.85
25638;BME280;13496;51.040;13.680;2023-03-01T11:25:43;100852.94;;;16.72;53.55
25638;BME280;13496;51.040;13.680;2023-03-01T11:30:55;100858.91;;;16.74;53.68
25638;BME280;13496;51.040;13.680;2023-03-01T11:36:01;100854.03;;;16.79;53.73
25638;BME280;13496;51.040;13.680;2023-03-01T11:41:10;100851.28;;;16.81;53.47
25638;BME280;13496;51.040;13.680;2023-03-01T11:52:14;100851.28;;;16.81;53.45
25638;BME280;13496;51.040;13.680;2023-03-01T12:08:27;100826.41;;;16.85;53.78
25638;BME280;13496;51.040;13.680;2023-03-01T12:29:59;100800.56;;;16.90;53.66
25638;BME280;13496;51.040;13.680;2023-03-01T12:35:20;100792.69;;;16.90;53.42
25638;BME280;13496;51.040;13.680;2023-03-01T12:46:01;100780.28;;;16.92;53.63
25638;BME280;13496;51.040;13.680;2023-03-01T12:51:10;100781.91;;;16.93;53.46
25638;BME280;13496;51.040;13.680;2023-03-01T12:56:25;100776.53;;;16.95;53.53
25638;BME280;13496;51.040;13.680;2023-03-01T13:01:55;100772.25;;;16.93;53.61
25638;BME280;13496;51.040;13.680;2023-03-01T13:18:04;100770.59;;;16.92;53.52
25638;BME280;13496;51.040;13.680;2023-03-01T13:23:10;100768.97;;;16.91;53.51
25638;BME280;13496;51.040;13.680;2023-03-01T13:28:54;100765.34;;;16.92;53.86
25638;BME280;13496;51.040;13.680;2023-03-01T13:33:57;100765.34;;;16.92;53.69
25638;BME280;13496;51.040;13.680;2023-03-01T13:39:31;100771.28;;;16.95;53.44
25638;BME280;13496;51.040;13.680;2023-03-01T13:44:36;100761.22;;;16.90;53.52
25638;BME280;13496;51.040;13.680;2023-03-01T13:49:56;100762.22;;;16.89;53.59
25638;BME280;13496;51.040;13.680;2023-03-01T13:55:03;100756.81;;;16.90;53.58
25638;BME280;13496;51.040;13.680;2023-03-01T14:00:06;100765.19;;;16.94;53.38
25638;BME280;13496;51.040;13.680;2023-03-01T14:05:09;100756.16;;;16.88;53.67
25638;BME280;13496;51.040;13.680;2023-03-01T14:10:13;100743.88;;;16.89;53.66
25638;BME280;13496;51.040;13.680;2023-03-01T14:15:19;100742.75;;;16.91;53.30
25638;BME280;13496;51.040;13.680;2023-03-01T14:20:24;100737.81;;;16.88;53.51
25638;BME280;13496;51.040;13.680;2023-03-01T14:25:34;100731.75;;;16.88;53.73
25638;BME280;13496;51.040;13.680;2023-03-01T14:31:03;100729.94;;;16.88;53.50
25638;BME280;13496;51.040;13.680;2023-03-01T14:36:06;100723.19;;;16.86;53.53
25638;BME280;13496;51.040;13.680;2023-03-01T14:41:16;100724.03;;;16.86;53.78
25638;BME280;13496;51.040;13.680;2023-03-01T14:51:38;100705.66;;;16.86;53.51
25638;BME280;13496;51.040;13.680;2023-03-01T14:56:44;100701.41;;;16.85;53.41
25638;BME280;13496;51.040;13.680;2023-03-01T15:01:47;100707.34;;;16.87;53.37
25638;BME280;13496;51.040;13.680;2023-03-01T15:06:51;100701.94;;;16.89;53.11
25638;BME280;13496;51.040;13.680;2023-03-01T15:11:54;100703.56;;;16.90;53.41
25638;BME280;13496;51.040;13.680;2023-03-01T15:16:56;100708.00;;;16.89;53.44
25638;BME280;13496;51.040;13.680;2023-03-01T15:21:57;100704.38;;;16.90;53.22
25638;BME280;13496;51.040;13.680;2023-03-01T15:27:00;100701.94;;;16.89;53.23
25638;BME280;13496;51.040;13.680;2023-03-01T15:32:46;100703.44;;;16.91;53.11
25638;BME280;13496;51.040;13.680;2023-03-01T15:37:49;100694.88;;;16.89;53.29
25638;BME280;13496;51.040;13.680;2023-03-01T15:42:51;100689.81;;;16.88;53.10
25638;BME280;13496;51.040;13.680;2023-03-01T15:48:04;100701.13;;;16.88;52.94
25638;BME280;13496;51.040;13.680;2023-03-01T15:53:10;100686.38;;;16.87;53.20
25638;BME280;13496;51.040;13.680;2023-03-01T15:58:15;100681.78;;;16.89;53.30
25638;BME280;13496;51.040;13.680;2023-03-01T16:03:18;100679.84;;;16.91;53.17
25638;BME280;13496;51.040;13.680;2023-03-01T16:08:22;100674.91;;;16.88;53.03
25638;BME280;13496;51.040;13.680;2023-03-01T16:13:24;100675.88;;;16.87;53.24
25638;BME280;13496;51.040;13.680;2023-03-01T16:18:26;100679.31;;;16.88;53.25
25638;BME280;13496;51.040;13.680;2023-03-01T16:23:28;100682.91;;;16.87;53.02
25638;BME280;13496;51.040;13.680;2023-03-01T16:28:30;100690.94;;;16.85;53.16
25638;BME280;13496;51.040;13.680;2023-03-01T16:33:31;100692.56;;;16.86;53.27
25638;BME280;13496;51.040;13.680;2023-03-01T16:38:33;100703.22;;;16.85;53.05
25638;BME280;13496;51.040;13.680;2023-03-01T16:43:36;100704.19;;;16.84;53.39
25638;BME280;13496;51.040;13.680;2023-03-01T16:48:38;100698.09;;;16.83;53.04
25638;BME280;13496;51.040;13.680;2023-03-01T16:53:40;100698.09;;;16.83;52.92
25638;BME280;13496;51.040;13.680;2023-03-01T16:58:42;100701.06;;;16.80;53.34
25638;BME280;13496;51.040;13.680;2023-03-01T17:03:45;100694.00;;;16.81;53.19
25638;BME280;13496;51.040;13.680;2023-03-01T17:08:47;100690.56;;;16.80;53.04
25638;BME280;13496;51.040;13.680;2023-03-01T17:13:49;100694.00;;;16.81;53.03
25638;BME280;13496;51.040;13.680;2023-03-01T17:18:51;100695.00;;;16.80;52.90
25638;BME280;13496;51.040;13.680;2023-03-01T17:23:55;100706.31;;;16.80;53.02
25638;BME280;13496;51.040;13.680;2023-03-01T17:28:57;100696.94;;;16.78;53.11
25638;BME280;13496;51.040;13.680;2023-03-01T17:33:59;100710.84;;;16.78;53.12
25638;BME280;13496;51.040;13.680;2023-03-01T17:39:01;100718.72;;;16.78;52.91
25638;BME280;13496;51.040;13.680;2023-03-01T17:44:03;100720.69;;;16.76;53.13
25638;BME280;13496;51.040;13.680;2023-03-01T17:49:04;100713.78;;;16.75;53.04
25638;BME280;13496;51.040;13.680;2023-03-01T17:54:06;100717.22;;;16.76;53.03
25638;BME280;13496;51.040;13.680;2023-03-01T17:59:08;100714.75;;;16.74;52.88
25638;BME280;13496;51.040;13.680;2023-03-01T18:04:10;100717.50;;;16.73;53.03
25638;BME280;13496;51.040;13.680;2023-03-01T18:09:11;100713.09;;;16.73;52.75
25638;BME280;13496;51.040;13.680;2023-03-01T18:14:13;100713.09;;;16.73;52.82
25638;BME280;13496;51.040;13.680;2023-03-01T18:19:15;100713.22;;;16.72;52.96
25638;BME280;13496;51.040;13.680;2023-03-01T18:24:17;100723.72;;;16.72;52.93
25638;BME280;13496;51.040;13.680;2023-03-01T18:29:18;100721.25;;;16.70;53.06
25638;BME280;13496;51.040;13.680;2023-03-01T18:34:20;100710.91;;;16.68;52.94
25638;BME280;13496;51.040;13.680;2023-03-01T18:39:22;100705.81;;;16.67;52.91
25638;BME280;13496;51.040;13.680;2023-03-01T18:44:24;100709.44;;;16.66;52.90
25638;BME280;13496;51.040;13.680;2023-03-01T18:49:26;100702.56;;;16.65;52.87
25638;BME280;13496;51.040;13.680;2023-03-01T18:54:28;100703.50;;;16.64;52.94
25638;BME280;13496;51.040;13.680;2023-03-01T18:59:29;100714.00;;;16.64;53.01
25638;BME280;13496;51.040;13.680;2023-03-01T19:04:31;100698.72;;;16.59;52.88
25638;BME280;13496;51.040;13.680;2023-03-01T19:09:32;100700.22;;;16.62;52.99
25638;BME280;13496;51.040;13.680;2023-03-01T19:14:34;100700.53;;;16.59;53.09
25638;BME280;13496;51.040;13.680;2023-03-01T19:19:37;100714.63;;;16.58;53.26
25638;BME280;13496;51.040;13.680;2023-03-01T19:24:39;100699.72;;;16.58;53.54
25638;BME280;13496;51.040;13.680;2023-03-01T19:29:41;100710.84;;;16.60;53.75
25638;BME280;13496;51.040;13.680;2023-03-01T19:34:42;100707.69;;;16.57;53.91
25638;BME280;13496;51.040;13.680;2023-03-01T19:39:44;100706.06;;;16.56;54.08
25638;BME280;13496;51.040;13.680;2023-03-01T19:44:46;100695.59;;;16.56;53.82
25638;BME280;13496;51.040;13.680;2023-03-01T19:49:47;100691.16;;;16.56;53.82
25638;BME280;13496;51.040;13.680;2023-03-01T19:54:49;100697.38;;;16.55;53.79
25638;BME280;13496;51.040;13.680;2023-03-01T19:59:51;100702.63;;;16.55;53.97
25638;BME280;13496;51.040;13.680;2023-03-01T20:04:55;100714.09;;;16.54;54.01
25638;BME280;13496;51.040;13.680;2023-03-01T20:09:56;100712.59;;;16.52;53.87
25638;BME280;13496;51.040;13.680;2023-03-01T20:14:58;100716.03;;;16.52;53.85
25638;BME280;13496;51.040;13.680;2023-03-01T20:20:00;100710.94;;;16.51;54.07
25638;BME280;13496;51.040;13.680;2023-03-01T20:25:02;100706.66;;;16.50;54.02
25638;BME280;13496;51.040;13.680;2023-03-01T20:30:04;100702.41;;;16.49;53.95
25638;BME280;13496;51.040;13.680;2023-03-01T20:35:06;100706.00;;;16.48;53.79
25638;BME280;13496;51.040;13.680;2023-03-01T20:40:09;100698.44;;;16.44;53.93
25638;BME280;13496;51.040;13.680;2023-03-01T20:45:11;100682.72;;;16.44;54.10
25638;BME280;13496;51.040;13.680;2023-03-01T20:50:13;100682.88;;;16.43;53.94
25638;BME280;13496;51.040;13.680;2023-03-01T20:55:15;100684.66;;;16.42;54.00
25638;BME280;13496;51.040;13.680;2023-03-01T21:00:17;100676.81;;;16.42;53.95
25638;BME280;13496;51.040;13.680;2023-03-01T21:05:19;100689.25;;;16.40;53.98
25638;BME280;13496;51.040;13.680;2023-03-01T21:10:20;100689.25;;;16.40;54.00
25638;BME280;13496;51.040;13.680;2023-03-01T21:15:22;100685.81;;;16.40;53.87
25638;BME280;13496;51.040;13.680;2023-03-01T21:20:24;100676.44;;;16.37;54.01
25638;BME280;13496;51.040;13.680;2023-03-01T21:25:25;100672.19;;;16.36;53.64
25638;BME280;13496;51.040;13.680;2023-03-01T21:30:35;100667.09;;;16.35;53.63
25638;BME280;13496;51.040;13.680;2023-03-01T21:35:37;100667.94;;;16.35;54.15
25638;BME280;13496;51.040;13.680;2023-03-01T21:40:38;100667.94;;;16.35;53.91
25638;BME280;13496;51.040;13.680;2023-03-01T21:45:40;100669.88;;;16.33;54.01
25638;BME280;13496;51.040;13.680;2023-03-01T21:50:41;100676.09;;;16.32;54.00
25638;BME280;13496;51.040;13.680;2023-03-01T21:55:47;100668.34;;;16.31;54.18
25638;BME280;13496;51.040;13.680;2023-03-01T22:00:49;100655.25;;;16.31;53.87
25638;BME280;13496;51.040;13.680;2023-03-01T22:05:59;100657.38;;;16.27;54.02
25638;BME280;13496;51.040;13.680;2023-03-01T22:11:01;100645.09;;;16.28;54.05
25638;BME280;13496;51.040;13.680;2023-03-01T22:16:03;100642.63;;;16.26;53.95
25638;BME280;13496;51.040;13.680;2023-03-01T22:21:05;100642.94;;;16.23;54.13
25638;BME280;13496;51.040;13.680;2023-03-01T22:26:08;100641.28;;;16.22;54.15
25638;BME280;13496;51.040;13.680;2023-03-01T22:31:20;100639.50;;;16.23;53.92
25638;BME280;13496;51.040;13.680;2023-03-01T22:36:22;100637.16;;;16.19;53.97
25638;BME280;13496;51.040;13.680;2023-03-01T22:41:31;100646.53;;;16.22;53.87
25638;BME280;13496;51.040;13.680;2023-03-01T22:46:33;100646.81;;;16.19;53.89
25638;BME280;13496;51.040;13.680;2023-03-01T22:51:37;100652.06;;;16.19;54.09
25638;BME280;13496;51.040;13.680;2023-03-01T22:56:38;100639.94;;;16.18;53.81
25638;BME280;13496;51.040;13.680;2023-03-01T23:01:41;100636.50;;;16.17;53.85
25638;BME280;13496;51.040;13.680;2023-03-01T23:06:45;100635.16;;;16.13;54.21
25638;BME280;13496;51.040;13.680;2023-03-01T23:11:57;100641.22;;;16.14;53.84
25638;BME280;13496;51.040;13.680;2023-03-01T23:17:00;100640.25;;;16.15;53.80
25638;BME280;13496;51.040;13.680;2023-03-01T23:22:02;100636.94;;;16.13;53.85
25638;BME280;13496;51.040;13.680;2023-03-01T23:27:04;100647.56;;;16.11;53.85
25638;BME280;13496;51.040;13.680;2023-03-01T23:32:06;100643.16;;;16.12;53.87
25638;BME280;13496;51.040;13.680;2023-03-01T23:37:08;100645.25;;;16.08;54.04
25638;BME280;13496;51.040;13.680;2023-03-01T23:42:10;100645.13;;;16.10;54.13
25638;BME280;13496;51.040;13.680;2023-03-01T23:47:12;100642.50;;;16.10;53.88
25638;BME280;13496;51.040;13.680;2023-03-01T23:52:14;100650.78;;;16.05;54.05
25638;BME280;13496;51.040;13.680;2023-03-01T23:57:18;100644.72;;;16.05;53.99
